HKWJ

Wajir Airport

Wajir, Kenya
METAR HKWJ 191100Z 07004KT 9999 SCT035TCU 33/17 Q1009
Observed Flight Rules
Dec-19 @ 11:00 UTC (38 minutes ago) Visual Flight Rules
Wind Visibility Clouds
70° at 4 knots 10,000+ meters
  • Scattered at 3,500' AGL
Temperatures Readings
Current 33°C / 91°F
Dewpoint 17°C / 63°F
Humidity 38%
Altimeter 29.79" Hg
Pressure 1009 hPa
Elevation 244
METAR HKWJ 191100Z 07004KT 9999 SCT035TCU 33/17 Q1009
Observed Flight Rules
Dec-19 @ 11:00 UTC
(38 minutes ago)
VFR
Wind Visibility
70° at 4 knots 10,000+ meters
Clouds
  • Scattered at 3,500' AGL
Temperature Dewpoint
33°C / 91°F 17°C / 63°F
Humidity Altimeter Pressure
38% 29.79" Hg 1009 hPa